sensor_id;sensor_type;location;lat;lon;timestamp;P1;durP1;ratioP1;P2;durP2;ratioP2
26038;SDS011;13815;52.374;4.882;2023-03-14T00:01:12;10.50;;;9.40;;
26038;SDS011;13815;52.374;4.882;2023-03-14T00:03:39;9.20;;;8.80;;
26038;SDS011;13815;52.374;4.882;2023-03-14T00:06:05;8.50;;;8.20;;
26038;SDS011;13815;52.374;4.882;2023-03-14T00:08:31;16.45;;;9.40;;
26038;SDS011;13815;52.374;4.882;2023-03-14T00:10:56;8.95;;;8.45;;
26038;SDS011;13815;52.374;4.882;2023-03-14T00:13:24;8.30;;;7.90;;
26038;SDS011;13815;52.374;4.882;2023-03-14T00:15:50;10.07;;;8.00;;
26038;SDS011;13815;52.374;4.882;2023-03-14T00:18:15;8.52;;;7.65;;
26038;SDS011;13815;52.374;4.882;2023-03-14T00:20:40;7.57;;;7.20;;
26038;SDS011;13815;52.374;4.882;2023-03-14T00:23:06;7.70;;;7.35;;
26038;SDS011;13815;52.374;4.882;2023-03-14T00:25:31;6.90;;;6.60;;
26038;SDS011;13815;52.374;4.882;2023-03-14T00:28:09;7.47;;;6.97;;
26038;SDS011;13815;52.374;4.882;2023-03-14T00:30:36;8.05;;;6.93;;
26038;SDS011;13815;52.374;4.882;2023-03-14T00:33:02;6.28;;;6.07;;
26038;SDS011;13815;52.374;4.882;2023-03-14T00:35:27;14.30;;;6.80;;
26038;SDS011;13815;52.374;4.882;2023-03-14T00:37:53;6.45;;;6.18;;
26038;SDS011;13815;52.374;4.882;2023-03-14T00:40:18;6.50;;;6.20;;
26038;SDS011;13815;52.374;4.882;2023-03-14T00:42:43;8.73;;;7.93;;
26038;SDS011;13815;52.374;4.882;2023-03-14T00:45:09;6.45;;;6.25;;
26038;SDS011;13815;52.374;4.882;2023-03-14T00:47:35;8.25;;;7.38;;
26038;SDS011;13815;52.374;4.882;2023-03-14T00:50:00;8.13;;;6.90;;
26038;SDS011;13815;52.374;4.882;2023-03-14T00:52:26;6.43;;;6.22;;
26038;SDS011;13815;52.374;4.882;2023-03-14T00:54:51;6.25;;;6.03;;
26038;SDS011;13815;52.374;4.882;2023-03-14T00:57:16;7.72;;;6.15;;
26038;SDS011;13815;52.374;4.882;2023-03-14T00:59:42;5.68;;;5.47;;
26038;SDS011;13815;52.374;4.882;2023-03-14T01:02:07;5.45;;;5.25;;
26038;SDS011;13815;52.374;4.882;2023-03-14T01:04:32;7.15;;;5.03;;
26038;SDS011;13815;52.374;4.882;2023-03-14T01:06:59;4.50;;;4.40;;
26038;SDS011;13815;52.374;4.882;2023-03-14T01:09:25;5.68;;;4.65;;
26038;SDS011;13815;52.374;4.882;2023-03-14T01:11:50;4.35;;;4.22;;
26038;SDS011;13815;52.374;4.882;2023-03-14T01:14:15;3.90;;;3.78;;
26038;SDS011;13815;52.374;4.882;2023-03-14T01:16:41;5.70;;;3.65;;
26038;SDS011;13815;52.374;4.882;2023-03-14T01:19:06;2.95;;;2.85;;
26038;SDS011;13815;52.374;4.882;2023-03-14T01:21:32;2.88;;;2.78;;
26038;SDS011;13815;52.374;4.882;2023-03-14T01:24:03;6.72;;;3.13;;
26038;SDS011;13815;52.374;4.882;2023-03-14T01:26:31;2.75;;;2.65;;
26038;SDS011;13815;52.374;4.882;2023-03-14T01:28:58;1.65;;;1.65;;
26038;SDS011;13815;52.374;4.882;2023-03-14T01:31:24;11.30;;;2.67;;
26038;SDS011;13815;52.374;4.882;2023-03-14T01:33:50;4.85;;;1.80;;
26038;SDS011;13815;52.374;4.882;2023-03-14T01:36:15;1.40;;;1.40;;
26038;SDS011;13815;52.374;4.882;2023-03-14T01:38:40;6.40;;;2.78;;
26038;SDS011;13815;52.374;4.882;2023-03-14T01:41:14;1.42;;;1.33;;
26038;SDS011;13815;52.374;4.882;2023-03-14T01:43:40;6.63;;;1.50;;
26038;SDS011;13815;52.374;4.882;2023-03-14T01:46:13;2.70;;;2.45;;
26038;SDS011;13815;52.374;4.882;2023-03-14T01:48:48;1.23;;;1.13;;
26038;SDS011;13815;52.374;4.882;2023-03-14T01:51:25;0.70;;;0.70;;
26038;SDS011;13815;52.374;4.882;2023-03-14T01:53:56;2.05;;;0.95;;
26038;SDS011;13815;52.374;4.882;2023-03-14T01:56:26;0.90;;;0.88;;
26038;SDS011;13815;52.374;4.882;2023-03-14T01:58:51;0.77;;;0.77;;
26038;SDS011;13815;52.374;4.882;2023-03-14T02:01:18;4.60;;;1.10;;
26038;SDS011;13815;52.374;4.882;2023-03-14T02:03:50;0.45;;;0.45;;
26038;SDS011;13815;52.374;4.882;2023-03-14T02:06:19;0.80;;;0.75;;
26038;SDS011;13815;52.374;4.882;2023-03-14T02:08:51;0.50;;;0.50;;
26038;SDS011;13815;52.374;4.882;2023-03-14T02:11:16;0.57;;;0.47;;
26038;SDS011;13815;52.374;4.882;2023-03-14T02:13:42;9.88;;;1.27;;
26038;SDS011;13815;52.374;4.882;2023-03-14T02:16:08;0.30;;;0.30;;
26038;SDS011;13815;52.374;4.882;2023-03-14T02:18:33;0.47;;;0.40;;
26038;SDS011;13815;52.374;4.882;2023-03-14T02:23:58;0.35;;;0.30;;
26038;SDS011;13815;52.374;4.882;2023-03-14T02:26:41;0.95;;;0.70;;
26038;SDS011;13815;52.374;4.882;2023-03-14T02:29:08;6.60;;;1.13;;
26038;SDS011;13815;52.374;4.882;2023-03-14T02:31:34;0.93;;;0.73;;
26038;SDS011;13815;52.374;4.882;2023-03-14T02:34:00;0.30;;;0.30;;
26038;SDS011;13815;52.374;4.882;2023-03-14T02:36:26;0.77;;;0.60;;
26038;SDS011;13815;52.374;4.882;2023-03-14T02:39:00;0.38;;;0.30;;
26038;SDS011;13815;52.374;4.882;2023-03-14T02:41:30;5.63;;;0.93;;
26038;SDS011;13815;52.374;4.882;2023-03-14T02:43:56;0.68;;;0.50;;
26038;SDS011;13815;52.374;4.882;2023-03-14T02:46:21;0.68;;;0.47;;
26038;SDS011;13815;52.374;4.882;2023-03-14T02:51:18;0.80;;;0.60;;
26038;SDS011;13815;52.374;4.882;2023-03-14T02:53:44;7.28;;;0.82;;
26038;SDS011;13815;52.374;4.882;2023-03-14T02:56:10;5.72;;;1.00;;
26038;SDS011;13815;52.374;4.882;2023-03-14T02:58:36;1.00;;;0.75;;
26038;SDS011;13815;52.374;4.882;2023-03-14T03:01:03;4.88;;;0.60;;
26038;SDS011;13815;52.374;4.882;2023-03-14T03:03:28;8.57;;;1.92;;
26038;SDS011;13815;52.374;4.882;2023-03-14T03:05:54;2.80;;;0.73;;
26038;SDS011;13815;52.374;4.882;2023-03-14T03:08:21;5.88;;;0.88;;
26038;SDS011;13815;52.374;4.882;2023-03-14T03:10:47;0.60;;;0.40;;
26038;SDS011;13815;52.374;4.882;2023-03-14T03:13:13;0.43;;;0.40;;
26038;SDS011;13815;52.374;4.882;2023-03-14T03:15:39;5.22;;;0.60;;
26038;SDS011;13815;52.374;4.882;2023-03-14T03:18:05;0.43;;;0.40;;
26038;SDS011;13815;52.374;4.882;2023-03-14T03:20:31;0.80;;;0.60;;
26038;SDS011;13815;52.374;4.882;2023-03-14T03:22:56;4.10;;;0.60;;
26038;SDS011;13815;52.374;4.882;2023-03-14T03:25:25;0.60;;;0.50;;
26038;SDS011;13815;52.374;4.882;2023-03-14T03:27:50;0.65;;;0.52;;
26038;SDS011;13815;52.374;4.882;2023-03-14T03:30:16;1.00;;;0.80;;
26038;SDS011;13815;52.374;4.882;2023-03-14T03:32:42;0.20;;;0.20;;
26038;SDS011;13815;52.374;4.882;2023-03-14T03:35:07;0.28;;;0.25;;
26038;SDS011;13815;52.374;4.882;2023-03-14T03:37:33;5.40;;;0.68;;
26038;SDS011;13815;52.374;4.882;2023-03-14T03:39:59;5.00;;;1.33;;
26038;SDS011;13815;52.374;4.882;2023-03-14T03:42:26;3.60;;;1.10;;
26038;SDS011;13815;52.374;4.882;2023-03-14T03:44:52;5.03;;;0.52;;
26038;SDS011;13815;52.374;4.882;2023-03-14T03:47:17;0.50;;;0.43;;
26038;SDS011;13815;52.374;4.882;2023-03-14T03:49:42;0.30;;;0.28;;
26038;SDS011;13815;52.374;4.882;2023-03-14T03:52:08;0.68;;;0.47;;
26038;SDS011;13815;52.374;4.882;2023-03-14T03:54:34;0.60;;;0.50;;
26038;SDS011;13815;52.374;4.882;2023-03-14T03:56:59;5.30;;;0.63;;
26038;SDS011;13815;52.374;4.882;2023-03-14T03:59:25;0.63;;;0.50;;
26038;SDS011;13815;52.374;4.882;2023-03-14T04:01:50;0.45;;;0.35;;
26038;SDS011;13815;52.374;4.882;2023-03-14T04:04:15;2.10;;;0.88;;
26038;SDS011;13815;52.374;4.882;2023-03-14T04:06:41;1.67;;;1.25;;
26038;SDS011;13815;52.374;4.882;2023-03-14T04:09:07;4.90;;;0.82;;
26038;SDS011;13815;52.374;4.882;2023-03-14T04:11:35;10.45;;;1.13;;
26038;SDS011;13815;52.374;4.882;2023-03-14T04:14:01;0.20;;;0.17;;
26038;SDS011;13815;52.374;4.882;2023-03-14T04:16:27;0.75;;;0.60;;
26038;SDS011;13815;52.374;4.882;2023-03-14T04:18:53;0.68;;;0.50;;
26038;SDS011;13815;52.374;4.882;2023-03-14T04:21:18;0.22;;;0.17;;
26038;SDS011;13815;52.374;4.882;2023-03-14T04:23:43;1.60;;;0.50;;
26038;SDS011;13815;52.374;4.882;2023-03-14T04:26:09;4.80;;;0.65;;
26038;SDS011;13815;52.374;4.882;2023-03-14T04:28:34;0.30;;;0.20;;
26038;SDS011;13815;52.374;4.882;2023-03-14T04:31:08;3.40;;;0.30;;
26038;SDS011;13815;52.374;4.882;2023-03-14T04:33:34;0.30;;;0.20;;
26038;SDS011;13815;52.374;4.882;2023-03-14T04:36:01;0.45;;;0.32;;
26038;SDS011;13815;52.374;4.882;2023-03-14T04:38:26;1.27;;;0.20;;
26038;SDS011;13815;52.374;4.882;2023-03-14T04:40:52;0.10;;;0.03;;
26038;SDS011;13815;52.374;4.882;2023-03-14T04:43:17;0.22;;;0.13;;
26038;SDS011;13815;52.374;4.882;2023-03-14T04:45:42;6.50;;;0.82;;
26038;SDS011;13815;52.374;4.882;2023-03-14T04:48:08;0.28;;;0.20;;
26038;SDS011;13815;52.374;4.882;2023-03-14T04:50:34;0.25;;;0.13;;
26038;SDS011;13815;52.374;4.882;2023-03-14T04:52:59;10.27;;;1.13;;
26038;SDS011;13815;52.374;4.882;2023-03-14T04:55:24;0.43;;;0.30;;
26038;SDS011;13815;52.374;4.882;2023-03-14T04:57:50;0.22;;;0.10;;
26038;SDS011;13815;52.374;4.882;2023-03-14T05:00:15;5.35;;;0.50;;
26038;SDS011;13815;52.374;4.882;2023-03-14T05:02:43;0.30;;;0.20;;
26038;SDS011;13815;52.374;4.882;2023-03-14T05:05:08;0.10;;;0.08;;
26038;SDS011;13815;52.374;4.882;2023-03-14T05:07:34;4.93;;;0.63;;
26038;SDS011;13815;52.374;4.882;2023-03-14T05:09:59;1.40;;;1.27;;
26038;SDS011;13815;52.374;4.882;2023-03-14T05:12:24;0.98;;;0.73;;
26038;SDS011;13815;52.374;4.882;2023-03-14T05:14:50;5.03;;;0.43;;
26038;SDS011;13815;52.374;4.882;2023-03-14T05:17:15;0.63;;;0.47;;
26038;SDS011;13815;52.374;4.882;2023-03-14T05:19:41;3.70;;;0.43;;
26038;SDS011;13815;52.374;4.882;2023-03-14T05:22:07;5.63;;;0.70;;
26038;SDS011;13815;52.374;4.882;2023-03-14T05:24:32;2.28;;;0.98;;
26038;SDS011;13815;52.374;4.882;2023-03-14T05:26:58;4.93;;;0.50;;
26038;SDS011;13815;52.374;4.882;2023-03-14T05:29:23;5.47;;;0.60;;
26038;SDS011;13815;52.374;4.882;2023-03-14T05:31:51;0.10;;;0.00;;
26038;SDS011;13815;52.374;4.882;2023-03-14T05:34:20;6.03;;;0.85;;
26038;SDS011;13815;52.374;4.882;2023-03-14T05:36:45;0.38;;;0.22;;
26038;SDS011;13815;52.374;4.882;2023-03-14T05:39:10;0.57;;;0.30;;
26038;SDS011;13815;52.374;4.882;2023-03-14T05:41:36;10.60;;;0.93;;
26038;SDS011;13815;52.374;4.882;2023-03-14T05:44:01;0.63;;;0.40;;
26038;SDS011;13815;52.374;4.882;2023-03-14T05:46:26;0.40;;;0.25;;
26038;SDS011;13815;52.374;4.882;2023-03-14T05:49:01;8.43;;;0.65;;
26038;SDS011;13815;52.374;4.882;2023-03-14T05:51:26;0.50;;;0.30;;
26038;SDS011;13815;52.374;4.882;2023-03-14T05:53:51;4.97;;;0.45;;
26038;SDS011;13815;52.374;4.882;2023-03-14T05:56:17;0.57;;;0.32;;
26038;SDS011;13815;52.374;4.882;2023-03-14T05:58:42;0.35;;;0.20;;
26038;SDS011;13815;52.374;4.882;2023-03-14T06:01:07;5.43;;;0.52;;
26038;SDS011;13815;52.374;4.882;2023-03-14T06:03:33;6.28;;;0.68;;
26038;SDS011;13815;52.374;4.882;2023-03-14T06:05:59;0.68;;;0.40;;
26038;SDS011;13815;52.374;4.882;2023-03-14T06:08:24;5.43;;;0.65;;
26038;SDS011;13815;52.374;4.882;2023-03-14T06:10:50;5.80;;;0.68;;
26038;SDS011;13815;52.374;4.882;2023-03-14T06:13:16;6.13;;;1.67;;
26038;SDS011;13815;52.374;4.882;2023-03-14T06:15:41;0.55;;;0.30;;
26038;SDS011;13815;52.374;4.882;2023-03-14T06:18:07;6.35;;;0.95;;
26038;SDS011;13815;52.374;4.882;2023-03-14T06:20:33;0.85;;;0.50;;
26038;SDS011;13815;52.374;4.882;2023-03-14T06:23:00;0.63;;;0.30;;
26038;SDS011;13815;52.374;4.882;2023-03-14T06:25:28;0.20;;;0.10;;
26038;SDS011;13815;52.374;4.882;2023-03-14T06:27:54;9.82;;;0.82;;
26038;SDS011;13815;52.374;4.882;2023-03-14T06:30:19;5.45;;;0.68;;
26038;SDS011;13815;52.374;4.882;2023-03-14T06:32:44;0.95;;;0.52;;
26038;SDS011;13815;52.374;4.882;2023-03-14T06:35:10;0.30;;;0.20;;
26038;SDS011;13815;52.374;4.882;2023-03-14T06:37:35;0.50;;;0.30;;
26038;SDS011;13815;52.374;4.882;2023-03-14T06:40:00;0.47;;;0.30;;
26038;SDS011;13815;52.374;4.882;2023-03-14T06:42:26;2.17;;;1.25;;
26038;SDS011;13815;52.374;4.882;2023-03-14T06:44:51;7.88;;;0.77;;
26038;SDS011;13815;52.374;4.882;2023-03-14T06:47:16;1.08;;;0.68;;
26038;SDS011;13815;52.374;4.882;2023-03-14T06:49:42;5.93;;;0.85;;
26038;SDS011;13815;52.374;4.882;2023-03-14T06:52:07;5.80;;;0.63;;
26038;SDS011;13815;52.374;4.882;2023-03-14T06:54:33;0.45;;;0.25;;
26038;SDS011;13815;52.374;4.882;2023-03-14T06:56:58;5.38;;;0.73;;
26038;SDS011;13815;52.374;4.882;2023-03-14T06:59:23;6.20;;;1.00;;
26038;SDS011;13815;52.374;4.882;2023-03-14T07:01:49;0.32;;;0.20;;
26038;SDS011;13815;52.374;4.882;2023-03-14T07:04:15;5.38;;;0.70;;
26038;SDS011;13815;52.374;4.882;2023-03-14T07:06:41;1.05;;;0.55;;
26038;SDS011;13815;52.374;4.882;2023-03-14T07:09:09;0.32;;;0.15;;
26038;SDS011;13815;52.374;4.882;2023-03-14T07:11:38;6.70;;;0.90;;
26038;SDS011;13815;52.374;4.882;2023-03-14T07:14:03;5.70;;;0.65;;
26038;SDS011;13815;52.374;4.882;2023-03-14T07:16:29;7.53;;;1.88;;
26038;SDS011;13815;52.374;4.882;2023-03-14T07:18:57;5.13;;;0.60;;
26038;SDS011;13815;52.374;4.882;2023-03-14T07:21:23;1.05;;;0.68;;
26038;SDS011;13815;52.374;4.882;2023-03-14T07:23:49;6.47;;;1.23;;
26038;SDS011;13815;52.374;4.882;2023-03-14T07:26:14;6.65;;;1.45;;
26038;SDS011;13815;52.374;4.882;2023-03-14T07:28:39;1.20;;;0.80;;
26038;SDS011;13815;52.374;4.882;2023-03-14T07:31:05;9.43;;;1.05;;
26038;SDS011;13815;52.374;4.882;2023-03-14T07:33:30;0.65;;;0.50;;
26038;SDS011;13815;52.374;4.882;2023-03-14T07:35:56;0.50;;;0.40;;
26038;SDS011;13815;52.374;4.882;2023-03-14T07:38:21;2.10;;;1.27;;
26038;SDS011;13815;52.374;4.882;2023-03-14T07:40:47;6.13;;;1.33;;
26038;SDS011;13815;52.374;4.882;2023-03-14T07:43:12;0.98;;;0.68;;
26038;SDS011;13815;52.374;4.882;2023-03-14T07:45:37;6.30;;;0.98;;
26038;SDS011;13815;52.374;4.882;2023-03-14T07:48:03;6.93;;;1.35;;
26038;SDS011;13815;52.374;4.882;2023-03-14T07:50:28;0.70;;;0.63;;
26038;SDS011;13815;52.374;4.882;2023-03-14T07:52:55;0.30;;;0.30;;
26038;SDS011;13815;52.374;4.882;2023-03-14T07:55:21;1.30;;;1.05;;
26038;SDS011;13815;52.374;4.882;2023-03-14T07:57:47;4.47;;;1.13;;
26038;SDS011;13815;52.374;4.882;2023-03-14T08:00:12;0.82;;;0.80;;
26038;SDS011;13815;52.374;4.882;2023-03-14T08:02:39;1.35;;;1.25;;
26038;SDS011;13815;52.374;4.882;2023-03-14T08:05:07;1.58;;;1.48;;
26038;SDS011;13815;52.374;4.882;2023-03-14T08:07:33;0.98;;;0.98;;
26038;SDS011;13815;52.374;4.882;2023-03-14T08:09:58;1.50;;;1.40;;
26038;SDS011;13815;52.374;4.882;2023-03-14T08:12:23;6.50;;;1.92;;
26038;SDS011;13815;52.374;4.882;2023-03-14T08:14:49;7.00;;;2.65;;
26038;SDS011;13815;52.374;4.882;2023-03-14T08:17:14;4.95;;;2.33;;
26038;SDS011;13815;52.374;4.882;2023-03-14T08:19:42;7.00;;;2.92;;
26038;SDS011;13815;52.374;4.882;2023-03-14T08:22:08;2.45;;;2.25;;
26038;SDS011;13815;52.374;4.882;2023-03-14T08:24:33;3.15;;;2.85;;
26038;SDS011;13815;52.374;4.882;2023-03-14T08:26:59;8.48;;;3.72;;
26038;SDS011;13815;52.374;4.882;2023-03-14T08:29:24;6.43;;;2.65;;
26038;SDS011;13815;52.374;4.882;2023-03-14T08:31:50;3.30;;;3.10;;
26038;SDS011;13815;52.374;4.882;2023-03-14T08:34:15;6.53;;;3.28;;
26038;SDS011;13815;52.374;4.882;2023-03-14T08:36:41;4.10;;;3.80;;
26038;SDS011;13815;52.374;4.882;2023-03-14T08:39:07;3.50;;;3.30;;
26038;SDS011;13815;52.374;4.882;2023-03-14T08:41:33;4.40;;;4.20;;
26038;SDS011;13815;52.374;4.882;2023-03-14T08:43:58;7.10;;;4.22;;
26038;SDS011;13815;52.374;4.882;2023-03-14T08:46:25;8.60;;;4.20;;
26038;SDS011;13815;52.374;4.882;2023-03-14T08:48:50;4.28;;;4.07;;
26038;SDS011;13815;52.374;4.882;2023-03-14T08:51:15;6.30;;;5.80;;
26038;SDS011;13815;52.374;4.882;2023-03-14T08:53:42;6.65;;;4.15;;
26038;SDS011;13815;52.374;4.882;2023-03-14T08:56:07;4.90;;;4.70;;
26038;SDS011;13815;52.374;4.882;2023-03-14T08:58:35;3.67;;;3.47;;
26038;SDS011;13815;52.374;4.882;2023-03-14T09:01:03;7.90;;;4.80;;
26038;SDS011;13815;52.374;4.882;2023-03-14T09:03:29;13.82;;;6.30;;
26038;SDS011;13815;52.374;4.882;2023-03-14T09:05:55;5.32;;;5.13;;
26038;SDS011;13815;52.374;4.882;2023-03-14T09:08:20;10.50;;;6.25;;
26038;SDS011;13815;52.374;4.882;2023-03-14T09:10:45;7.80;;;5.57;;
26038;SDS011;13815;52.374;4.882;2023-03-14T09:13:11;5.90;;;5.60;;
26038;SDS011;13815;52.374;4.882;2023-03-14T09:15:36;8.27;;;6.00;;
26038;SDS011;13815;52.374;4.882;2023-03-14T09:18:07;7.97;;;6.18;;
26038;SDS011;13815;52.374;4.882;2023-03-14T09:20:32;6.18;;;5.70;;
26038;SDS011;13815;52.374;4.882;2023-03-14T09:22:57;5.80;;;5.50;;
26038;SDS011;13815;52.374;4.882;2023-03-14T09:25:23;8.10;;;5.85;;
26038;SDS011;13815;52.374;4.882;2023-03-14T09:27:51;4.78;;;4.57;;
26038;SDS011;13815;52.374;4.882;2023-03-14T09:30:16;5.25;;;4.85;;
26038;SDS011;13815;52.374;4.882;2023-03-14T09:32:42;5.65;;;3.50;;
26038;SDS011;13815;52.374;4.882;2023-03-14T09:35:07;3.78;;;3.58;;
26038;SDS011;13815;52.374;4.882;2023-03-14T09:37:33;3.85;;;3.65;;
26038;SDS011;13815;52.374;4.882;2023-03-14T09:39:58;2.50;;;2.40;;
26038;SDS011;13815;52.374;4.882;2023-03-14T09:42:25;9.40;;;3.60;;
26038;SDS011;13815;52.374;4.882;2023-03-14T09:45:03;5.53;;;4.28;;
26038;SDS011;13815;52.374;4.882;2023-03-14T09:47:33;8.23;;;5.80;;
26038;SDS011;13815;52.374;4.882;2023-03-14T09:50:02;5.10;;;4.80;;
26038;SDS011;13815;52.374;4.882;2023-03-14T09:52:32;5.10;;;4.90;;
26038;SDS011;13815;52.374;4.882;2023-03-14T09:55:05;5.10;;;4.90;;
26038;SDS011;13815;52.374;4.882;2023-03-14T09:57:33;7.93;;;6.43;;
26038;SDS011;13815;52.374;4.882;2023-03-14T10:00:19;8.05;;;6.53;;
26038;SDS011;13815;52.374;4.882;2023-03-14T10:02:51;6.13;;;5.93;;
26038;SDS011;13815;52.374;4.882;2023-03-14T10:05:20;9.43;;;8.70;;
26038;SDS011;13815;52.374;4.882;2023-03-14T10:07:46;11.70;;;10.27;;
26038;SDS011;13815;52.374;4.882;2023-03-14T10:10:22;11.75;;;11.00;;
26038;SDS011;13815;52.374;4.882;2023-03-14T10:12:56;9.50;;;9.10;;
26038;SDS011;13815;52.374;4.882;2023-03-14T10:15:33;12.02;;;10.90;;
26038;SDS011;13815;52.374;4.882;2023-03-14T10:18:00;12.30;;;11.63;;
26038;SDS011;13815;52.374;4.882;2023-03-14T10:22:57;15.25;;;13.90;;
26038;SDS011;13815;52.374;4.882;2023-03-14T10:25:25;14.55;;;13.30;;
26038;SDS011;13815;52.374;4.882;2023-03-14T10:28:01;14.50;;;13.80;;
26038;SDS011;13815;52.374;4.882;2023-03-14T10:30:33;17.45;;;16.15;;
26038;SDS011;13815;52.374;4.882;2023-03-14T10:33:07;19.92;;;18.25;;
26038;SDS011;13815;52.374;4.882;2023-03-14T10:35:34;27.05;;;24.20;;
26038;SDS011;13815;52.374;4.882;2023-03-14T10:38:02;37.60;;;27.45;;
26038;SDS011;13815;52.374;4.882;2023-03-14T10:40:30;45.63;;;29.42;;
26038;SDS011;13815;52.374;4.882;2023-03-14T10:42:57;36.63;;;28.00;;
26038;SDS011;13815;52.374;4.882;2023-03-14T10:45:28;38.58;;;29.67;;
26038;SDS011;13815;52.374;4.882;2023-03-14T10:47:54;39.22;;;29.20;;
26038;SDS011;13815;52.374;4.882;2023-03-14T10:50:27;47.25;;;32.78;;
26038;SDS011;13815;52.374;4.882;2023-03-14T10:52:54;53.15;;;34.08;;
26038;SDS011;13815;52.374;4.882;2023-03-14T10:55:20;49.40;;;32.03;;
26038;SDS011;13815;52.374;4.882;2023-03-14T10:57:46;46.42;;;31.00;;
26038;SDS011;13815;52.374;4.882;2023-03-14T11:00:18;51.05;;;31.05;;
26038;SDS011;13815;52.374;4.882;2023-03-14T11:05:34;47.10;;;30.38;;
26038;SDS011;13815;52.374;4.882;2023-03-14T11:08:26;53.33;;;33.40;;
26038;SDS011;13815;52.374;4.882;2023-03-14T11:11:01;59.92;;;37.17;;
26038;SDS011;13815;52.374;4.882;2023-03-14T11:13:43;59.63;;;34.63;;
26038;SDS011;13815;52.374;4.882;2023-03-14T11:21:42;53.92;;;33.03;;
26038;SDS011;13815;52.374;4.882;2023-03-14T11:35:13;69.95;;;35.38;;
26038;SDS011;13815;52.374;4.882;2023-03-14T11:37:52;61.85;;;33.65;;
26038;SDS011;13815;52.374;4.882;2023-03-14T11:40:21;62.88;;;32.50;;
26038;SDS011;13815;52.374;4.882;2023-03-14T11:43:04;67.10;;;32.45;;
26038;SDS011;13815;52.374;4.882;2023-03-14T11:45:42;61.75;;;35.03;;
26038;SDS011;13815;52.374;4.882;2023-03-14T11:48:24;62.78;;;33.38;;
26038;SDS011;13815;52.374;4.882;2023-03-14T11:50:57;60.58;;;32.13;;
26038;SDS011;13815;52.374;4.882;2023-03-14T11:53:34;59.85;;;34.40;;
26038;SDS011;13815;52.374;4.882;2023-03-14T11:56:08;53.78;;;30.33;;
26038;SDS011;13815;52.374;4.882;2023-03-14T11:58:39;61.38;;;32.65;;
26038;SDS011;13815;52.374;4.882;2023-03-14T12:01:15;51.72;;;31.58;;
26038;SDS011;13815;52.374;4.882;2023-03-14T12:06:24;56.90;;;37.20;;
26038;SDS011;13815;52.374;4.882;2023-03-14T12:08:57;53.75;;;35.75;;
26038;SDS011;13815;52.374;4.882;2023-03-14T12:11:38;62.03;;;36.47;;
26038;SDS011;13815;52.374;4.882;2023-03-14T12:14:24;58.00;;;36.05;;
26038;SDS011;13815;52.374;4.882;2023-03-14T12:16:55;56.53;;;36.55;;
26038;SDS011;13815;52.374;4.882;2023-03-14T12:21:55;59.97;;;33.58;;
26038;SDS011;13815;52.374;4.882;2023-03-14T12:24:27;56.40;;;34.55;;
26038;SDS011;13815;52.374;4.882;2023-03-14T12:26:58;70.65;;;36.08;;
26038;SDS011;13815;52.374;4.882;2023-03-14T12:29:25;67.90;;;36.83;;
26038;SDS011;13815;52.374;4.882;2023-03-14T12:34:46;61.30;;;35.15;;
26038;SDS011;13815;52.374;4.882;2023-03-14T12:39:45;58.08;;;35.78;;
26038;SDS011;13815;52.374;4.882;2023-03-14T12:50:24;73.67;;;40.93;;
26038;SDS011;13815;52.374;4.882;2023-03-14T12:53:25;57.63;;;39.47;;
26038;SDS011;13815;52.374;4.882;2023-03-14T12:58:48;59.58;;;37.55;;
26038;SDS011;13815;52.374;4.882;2023-03-14T13:01:21;55.97;;;34.75;;
26038;SDS011;13815;52.374;4.882;2023-03-14T13:03:48;59.75;;;37.72;;
26038;SDS011;13815;52.374;4.882;2023-03-14T13:12:03;63.35;;;39.97;;
26038;SDS011;13815;52.374;4.882;2023-03-14T13:14:43;55.38;;;37.45;;
26038;SDS011;13815;52.374;4.882;2023-03-14T13:17:10;59.47;;;36.15;;
26038;SDS011;13815;52.374;4.882;2023-03-14T13:19:37;62.63;;;38.58;;
26038;SDS011;13815;52.374;4.882;2023-03-14T13:22:05;55.20;;;35.95;;
26038;SDS011;13815;52.374;4.882;2023-03-14T13:24:57;60.15;;;36.38;;
26038;SDS011;13815;52.374;4.882;2023-03-14T13:27:24;61.95;;;36.97;;
26038;SDS011;13815;52.374;4.882;2023-03-14T13:29:50;56.78;;;38.25;;
26038;SDS011;13815;52.374;4.882;2023-03-14T13:32:20;61.38;;;40.22;;
26038;SDS011;13815;52.374;4.882;2023-03-14T13:34:46;62.05;;;37.35;;
26038;SDS011;13815;52.374;4.882;2023-03-14T13:37:20;60.22;;;35.85;;
26038;SDS011;13815;52.374;4.882;2023-03-14T13:39:50;61.95;;;39.33;;
26038;SDS011;13815;52.374;4.882;2023-03-14T13:42:16;60.13;;;41.05;;
26038;SDS011;13815;52.374;4.882;2023-03-14T13:44:41;60.03;;;41.22;;
26038;SDS011;13815;52.374;4.882;2023-03-14T13:47:12;67.35;;;44.45;;
26038;SDS011;13815;52.374;4.882;2023-03-14T13:49:40;67.13;;;44.35;;
26038;SDS011;13815;52.374;4.882;2023-03-14T13:54:54;59.00;;;35.78;;
26038;SDS011;13815;52.374;4.882;2023-03-14T13:57:20;65.97;;;37.95;;
26038;SDS011;13815;52.374;4.882;2023-03-14T13:59:57;55.47;;;35.95;;
26038;SDS011;13815;52.374;4.882;2023-03-14T14:02:24;58.55;;;38.70;;
26038;SDS011;13815;52.374;4.882;2023-03-14T14:04:50;57.28;;;37.05;;
26038;SDS011;13815;52.374;4.882;2023-03-14T14:07:16;60.63;;;43.05;;
26038;SDS011;13815;52.374;4.882;2023-03-14T14:09:48;65.03;;;42.25;;
26038;SDS011;13815;52.374;4.882;2023-03-14T14:15:02;62.90;;;38.65;;
26038;SDS011;13815;52.374;4.882;2023-03-14T14:17:39;66.00;;;41.15;;
26038;SDS011;13815;52.374;4.882;2023-03-14T14:20:07;62.13;;;39.13;;
26038;SDS011;13815;52.374;4.882;2023-03-14T14:22:38;66.38;;;42.15;;
26038;SDS011;13815;52.374;4.882;2023-03-14T14:25:03;57.22;;;37.10;;
26038;SDS011;13815;52.374;4.882;2023-03-14T14:27:33;60.90;;;35.30;;
26038;SDS011;13815;52.374;4.882;2023-03-14T14:30:03;59.47;;;38.30;;
26038;SDS011;13815;52.374;4.882;2023-03-14T14:32:35;63.47;;;38.85;;
26038;SDS011;13815;52.374;4.882;2023-03-14T14:35:02;62.45;;;40.08;;
26038;SDS011;13815;52.374;4.882;2023-03-14T14:37:32;58.20;;;39.88;;
26038;SDS011;13815;52.374;4.882;2023-03-14T14:40:00;63.20;;;40.47;;
26038;SDS011;13815;52.374;4.882;2023-03-14T14:42:32;61.63;;;40.90;;
26038;SDS011;13815;52.374;4.882;2023-03-14T14:44:58;58.15;;;38.30;;
26038;SDS011;13815;52.374;4.882;2023-03-14T14:47:27;62.63;;;41.72;;
26038;SDS011;13815;52.374;4.882;2023-03-14T14:49:54;60.92;;;42.53;;
26038;SDS011;13815;52.374;4.882;2023-03-14T14:52:21;59.63;;;39.58;;
26038;SDS011;13815;52.374;4.882;2023-03-14T14:55:02;55.70;;;35.45;;
26038;SDS011;13815;52.374;4.882;2023-03-14T14:57:31;63.30;;;39.40;;
26038;SDS011;13815;52.374;4.882;2023-03-14T15:00:02;59.08;;;38.25;;
26038;SDS011;13815;52.374;4.882;2023-03-14T15:02:39;62.72;;;41.95;;
26038;SDS011;13815;52.374;4.882;2023-03-14T15:07:39;60.35;;;41.22;;
26038;SDS011;13815;52.374;4.882;2023-03-14T15:10:04;61.20;;;40.20;;
26038;SDS011;13815;52.374;4.882;2023-03-14T15:12:30;63.00;;;43.00;;
26038;SDS011;13815;52.374;4.882;2023-03-14T15:14:55;64.65;;;45.65;;
26038;SDS011;13815;52.374;4.882;2023-03-14T15:17:22;68.32;;;43.85;;
26038;SDS011;13815;52.374;4.882;2023-03-14T15:19:47;64.03;;;43.25;;
26038;SDS011;13815;52.374;4.882;2023-03-14T15:22:13;65.80;;;44.55;;
26038;SDS011;13815;52.374;4.882;2023-03-14T15:24:39;65.80;;;43.33;;
26038;SDS011;13815;52.374;4.882;2023-03-14T15:27:08;63.88;;;44.08;;
26038;SDS011;13815;52.374;4.882;2023-03-14T15:29:55;68.38;;;43.08;;
26038;SDS011;13815;52.374;4.882;2023-03-14T15:32:20;66.30;;;44.33;;
26038;SDS011;13815;52.374;4.882;2023-03-14T15:34:47;71.25;;;45.90;;
26038;SDS011;13815;52.374;4.882;2023-03-14T15:37:13;71.05;;;45.00;;
26038;SDS011;13815;52.374;4.882;2023-03-14T15:39:41;65.13;;;44.22;;
26038;SDS011;13815;52.374;4.882;2023-03-14T15:42:07;64.80;;;43.90;;
26038;SDS011;13815;52.374;4.882;2023-03-14T15:44:32;67.00;;;45.63;;